Time;durP1;ratioP1;P1;durP2;ratioP2;P2;SDS_P1;SDS_P2;PMS_P1;PMS_P2;Temp;Humidity;BMP_temperature;BMP_pressure;BME280_temperature;BME280_humidity;BME280_pressure;Samples;Min_cycle;Max_cycle;Signal;HPM_P1;HPM_P2
2022/09/25 00:00:17;;;;;;;0.60;0.43;;;;;;;9.42;77.10;97853.28;5072185;28;20031;-57
2022/09/25 00:02:42;;;;;;;0.30;0.28;;;;;;;9.44;76.73;97861.97;5072193;28;20025;-57
2022/09/25 00:05:08;;;;;;;0.65;0.47;;;;;;;9.44;76.62;97859.31;5072317;28;20097;-59
2022/09/25 00:07:33;;;;;;;0.50;0.40;;;;;;;9.38;76.67;97846.59;5072138;28;20094;-58
2022/09/25 00:09:59;;;;;;;0.60;0.47;;;;;;;9.46;77.12;97859.97;5071876;28;20040;-58
2022/09/25 00:12:24;;;;;;;0.70;0.25;;;;;;;9.47;76.61;97861.63;5072359;28;20035;-55
2022/09/25 00:14:51;;;;;;;1.75;0.30;;;;;;;9.47;77.04;97862.47;5072220;28;20036;-55
2022/09/25 00:17:17;;;;;;;0.80;0.50;;;;;;;9.47;76.98;97862.47;5071158;28;20328;-56
2022/09/25 00:19:51;;;;;;;0.60;0.47;;;;;;;9.49;76.87;97867.66;5071522;28;20035;-54
2022/09/25 00:22:17;;;;;;;2.67;0.63;;;;;;;9.52;77.22;97867.31;5072195;28;20036;-51
2022/09/25 00:24:43;;;;;;;0.88;0.30;;;;;;;9.53;77.27;97866.31;5072138;28;20036;-54
2022/09/25 00:27:09;;;;;;;1.95;0.40;;;;;;;9.44;77.43;97854.78;5071933;28;20032;-59
2022/09/25 00:29:39;;;;;;;0.38;0.35;;;;;;;9.59;77.03;97872.84;5072064;28;20029;-54
2022/09/25 00:32:06;;;;;;;1.17;0.40;;;;;;;9.57;76.96;97878.34;5072111;28;20075;-57
2022/09/25 00:34:32;;;;;;;0.38;0.30;;;;;;;9.56;77.24;97875.84;5071197;28;20485;-56
2022/09/25 00:36:57;;;;;;;0.65;0.43;;;;;;;9.53;77.31;97866.31;5072039;28;20032;-56
2022/09/25 00:39:23;;;;;;;0.43;0.30;;;;;;;9.58;77.82;97876.50;5071783;28;20138;-57
2022/09/25 00:41:49;;;;;;;0.60;0.40;;;;;;;9.60;77.52;97874.50;5071603;28;20025;-55
2022/09/25 00:44:55;;;;;;;0.73;0.50;;;;;;;9.72;77.59;97867.00;5071906;28;20036;-56
2022/09/25 00:47:38;;;;;;;2.60;0.40;;;;;;;9.71;77.34;97876.03;5071564;28;20366;-58
2022/09/25 00:50:31;;;;;;;1.25;0.52;;;;;;;9.71;77.10;97876.03;5071542;28;20049;-52
2022/09/25 00:53:11;;;;;;;1.70;0.70;;;;;;;9.75;77.65;97883.50;5071573;28;20075;-52
2022/09/25 00:55:39;;;;;;;0.57;0.50;;;;;;;9.50;77.48;97855.13;5071915;28;20492;-55
2022/09/25 00:58:05;;;;;;;0.70;0.50;;;;;;;9.67;77.59;97880.03;5071584;28;20032;-52
2022/09/25 01:00:32;;;;;;;0.50;0.30;;;;;;;9.70;77.64;97880.50;5071409;28;20035;-52
2022/09/25 01:02:58;;;;;;;0.57;0.30;;;;;;;9.70;77.77;97879.69;5072272;28;20031;-51
2022/09/25 01:05:28;;;;;;;0.45;0.38;;;;;;;9.73;77.94;97880.19;5075182;28;20040;-55
2022/09/25 01:07:57;;;;;;;0.60;0.40;;;;;;;9.74;77.16;97881.84;5073503;28;20369;-52
2022/09/25 01:10:22;;;;;;;1.40;0.43;;;;;;;9.71;76.95;97874.16;5074789;28;20037;-52
2022/09/25 01:12:50;;;;;;;0.93;0.52;;;;;;;9.69;76.79;97881.50;5075283;28;20098;-54
2022/09/25 01:15:19;;;;;;;1.10;0.73;;;;;;;9.68;77.29;97884.38;5074786;28;20079;-52
2022/09/25 01:18:15;;;;;;;1.27;0.95;;;;;;;9.76;77.45;97887.84;5074912;28;20470;-51
2022/09/25 01:21:11;;;;;;;1.83;1.33;;;;;;;9.75;77.33;97886.19;5075380;28;20032;-52
2022/09/25 01:24:05;;;;;;;3.65;1.55;;;;;;;9.79;76.89;97893.91;5074646;28;20029;-55
2022/09/25 01:26:58;;;;;;;2.05;1.52;;;;;;;9.73;77.28;97898.06;5073878;28;20127;-55
2022/09/25 01:29:54;;;;;;;2.78;1.80;;;;;;;9.76;77.26;97895.06;5054874;28;20520;-56
2022/09/25 01:32:34;;;;;;;2.75;1.85;;;;;;;9.71;77.18;97895.53;5072025;28;20036;-54
2022/09/25 01:35:19;;;;;;;2.45;1.65;;;;;;;9.61;76.94;97892.22;5074704;28;20112;-56
2022/09/25 01:37:55;;;;;;;2.95;1.60;;;;;;;9.69;76.79;97894.06;5074709;28;20040;-53
2022/09/25 01:40:27;;;;;;;2.17;1.70;;;;;;;9.65;76.94;97903.41;5074543;28;20028;-53
2022/09/25 01:43:00;;;;;;;3.50;2.33;;;;;;;9.62;77.48;97902.72;5074836;28;20101;-55
2022/09/25 01:45:35;;;;;;;2.63;1.90;;;;;;;9.65;77.31;97896.22;5073955;28;20040;-58
2022/09/25 01:48:03;;;;;;;3.42;2.72;;;;;;;9.59;77.19;97903.03;5074283;28;20394;-56
2022/09/25 01:50:46;;;;;;;4.18;2.58;;;;;;;9.64;77.46;97905.22;5074709;28;20510;-57
2022/09/25 01:53:18;;;;;;;5.20;3.75;;;;;;;9.66;77.40;97897.06;5074770;28;20043;-55
2022/09/25 01:55:49;;;;;;;2.80;2.35;;;;;;;9.60;77.03;97904.72;5074474;28;20111;-54
2022/09/25 01:58:15;;;;;;;4.68;3.75;;;;;;;9.61;77.83;97911.72;5074002;28;20103;-56
2022/09/25 02:00:46;;;;;;;2.90;2.33;;;;;;;9.65;77.53;97914.09;5074783;28;20119;-56
2022/09/25 02:03:36;;;;;;;5.68;3.65;;;;;;;9.76;77.71;97924.44;5074485;28;20157;-56
2022/09/25 02:06:08;;;;;;;2.28;1.77;;;;;;;9.68;77.12;97919.09;5074098;28;20398;-51
2022/09/25 02:08:48;;;;;;;2.58;2.10;;;;;;;9.72;77.40;97925.78;5073873;28;20454;-56
2022/09/25 02:11:14;;;;;;;2.67;1.65;;;;;;;9.62;77.23;97923.28;5074795;28;20358;-52
2022/09/25 02:13:49;;;;;;;3.95;1.88;;;;;;;9.65;77.28;97922.13;5073510;28;20112;-55
2022/09/25 02:16:21;;;;;;;6.75;2.65;;;;;;;9.62;77.68;97929.44;5074253;28;20037;-55
2022/09/25 02:21:49;;;;;;;2.90;2.10;;;;;;;9.68;77.32;97935.13;5074239;28;20036;-56
2022/09/25 02:24:25;;;;;;;3.33;2.20;;;;;;;9.62;77.80;97931.28;5073926;28;20119;-54
2022/09/25 02:26:51;;;;;;;2.65;1.60;;;;;;;9.56;77.46;97930.09;5073644;28;20162;-58
2022/09/25 02:29:17;;;;;;;3.22;1.98;;;;;;;9.38;78.01;97903.53;5073795;28;20177;-57
2022/09/25 02:32:02;;;;;;;3.03;2.20;;;;;;;9.63;78.79;97938.31;5073585;28;20021;-54
2022/09/25 02:34:28;;;;;;;2.78;1.83;;;;;;;9.59;78.50;97935.09;5072984;28;20089;-55
2022/09/25 02:36:54;;;;;;;2.25;1.15;;;;;;;9.52;78.22;97927.91;5073688;28;20421;-54
2022/09/25 02:39:24;;;;;;;1.02;0.70;;;;;;;9.52;78.02;97947.47;5073491;28;20436;-54
2022/09/25 02:42:15;;;;;;;1.48;0.65;;;;;;;9.52;78.63;97931.44;5073588;28;20089;-56
2022/09/25 02:44:52;;;;;;;0.63;0.30;;;;;;;9.51;78.20;97943.13;5073326;28;20098;-55
2022/09/25 02:47:36;;;;;;;0.63;0.40;;;;;;;9.46;78.44;97934.75;5073510;28;20074;-54
2022/09/25 02:50:18;;;;;;;1.13;0.40;;;;;;;9.37;77.86;97946.41;5073177;28;20048;-59
2022/09/25 02:53:28;;;;;;;1.80;0.30;;;;;;;9.38;78.24;97948.94;5073024;28;20477;-56
2022/09/25 02:56:05;;;;;;;0.80;0.32;;;;;;;9.23;77.79;97953.22;5031275;28;20578;-54
2022/09/25 02:58:34;;;;;;;0.70;0.40;;;;;;;9.05;78.32;97954.16;5069956;28;20042;-53
2022/09/25 03:01:04;;;;;;;0.35;0.35;;;;;;;8.96;78.12;97958.63;5072295;28;20039;-53
2022/09/25 03:03:32;;;;;;;0.98;0.25;;;;;;;8.82;78.26;97961.88;5072759;28;20043;-57
2022/09/25 03:06:00;;;;;;;0.40;0.20;;;;;;;8.79;78.70;97965.69;5072920;28;20366;-52
2022/09/25 03:08:40;;;;;;;0.30;0.30;;;;;;;8.71;78.36;97969.16;5073057;28;20032;-55
2022/09/25 03:11:11;;;;;;;1.20;0.70;;;;;;;8.69;79.14;97971.16;5072706;28;20115;-57
2022/09/25 03:13:38;;;;;;;0.60;0.30;;;;;;;8.57;79.19;97967.06;5071490;28;20043;-56
2022/09/25 03:16:11;;;;;;;0.70;0.50;;;;;;;8.64;79.70;97968.09;5072797;28;20081;-55
2022/09/25 03:18:36;;;;;;;1.13;0.30;;;;;;;8.69;79.16;97968.50;5072403;28;20074;-55
2022/09/25 03:21:03;;;;;;;1.27;0.43;;;;;;;8.70;79.60;97975.50;5072954;28;20347;-57
2022/09/25 03:23:30;;;;;;;0.80;0.43;;;;;;;8.71;79.82;97979.84;5072807;28;20416;-56
2022/09/25 03:25:55;;;;;;;1.77;1.20;;;;;;;8.72;79.44;97981.53;5071809;28;20415;-57
2022/09/25 03:28:24;;;;;;;4.35;1.45;;;;;;;8.75;78.36;97983.00;5072804;28;20118;-57
2022/09/25 03:31:01;;;;;;;2.55;1.40;;;;;;;8.74;78.63;97995.53;5072659;28;20137;-60
2022/09/25 03:33:29;;;;;;;2.83;1.58;;;;;;;8.44;79.09;97962.13;5072002;28;20024;-52
2022/09/25 03:36:11;;;;;;;2.13;1.40;;;;;;;8.74;78.14;97995.53;5072585;28;20067;-54
2022/09/25 03:38:40;;;;;;;1.92;1.58;;;;;;;8.48;79.35;97996.34;5052646;28;20068;-54
2022/09/25 03:41:08;;;;;;;1.70;1.35;;;;;;;8.48;78.93;98000.81;5063014;28;20181;-52
2022/09/25 03:43:39;;;;;;;2.15;1.20;;;;;;;8.53;78.50;98008.41;5072153;28;20449;-55
2022/09/25 03:46:06;;;;;;;2.08;1.23;;;;;;;8.46;78.63;98003.66;5072841;28;20028;-55
2022/09/25 03:48:32;;;;;;;3.38;1.00;;;;;;;8.39;78.11;98015.91;5072378;28;20048;-53
2022/09/25 03:50:59;;;;;;;0.93;0.75;;;;;;;8.23;78.75;98005.97;5072047;28;20043;-55
2022/09/25 03:53:25;;;;;;;1.08;0.68;;;;;;;8.14;78.36;98005.06;5072538;28;20029;-53
2022/09/25 03:55:51;;;;;;;1.52;0.90;;;;;;;8.12;78.50;98015.03;5072512;28;20086;-52
2022/09/25 03:58:17;;;;;;;1.73;0.90;;;;;;;7.88;78.57;97994.34;5072253;28;20033;-56
2022/09/25 04:00:46;;;;;;;1.17;0.80;;;;;;;8.03;78.67;98026.63;5072270;28;20150;-55
2022/09/25 04:03:13;;;;;;;1.45;0.70;;;;;;;7.93;79.57;98015.19;5072545;28;20146;-57
2022/09/25 04:05:39;;;;;;;1.38;1.00;;;;;;;7.86;79.59;98015.78;5072085;28;20025;-57
2022/09/25 04:08:05;;;;;;;0.75;0.50;;;;;;;7.98;79.08;98023.56;5072306;28;20292;-57
2022/09/25 04:10:31;;;;;;;0.90;0.60;;;;;;;8.02;78.89;98027.59;5071904;28;20039;-54
2022/09/25 04:12:57;;;;;;;2.30;0.80;;;;;;;7.95;78.51;98013.19;5072020;28;20450;-55
2022/09/25 04:15:23;;;;;;;0.50;0.50;;;;;;;7.92;79.46;98042.81;5072027;28;20047;-55
2022/09/25 04:17:52;;;;;;;0.80;0.60;;;;;;;7.99;79.52;98038.56;5072601;28;20025;-55
2022/09/25 04:20:18;;;;;;;1.25;0.60;;;;;;;7.98;79.65;98047.56;5071872;28;20433;-53
2022/09/25 04:22:44;;;;;;;0.68;0.60;;;;;;;8.04;78.32;98037.09;5072132;28;20036;-56
2022/09/25 04:25:10;;;;;;;0.88;0.57;;;;;;;8.02;78.36;98038.28;5072367;28;20421;-52
2022/09/25 04:27:36;;;;;;;0.43;0.40;;;;;;;7.92;78.23;98038.34;5071871;28;20028;-55
2022/09/25 04:30:06;;;;;;;1.33;0.60;;;;;;;7.97;78.80;98064.53;5071857;28;20473;-51
2022/09/25 04:35:16;;;;;;;0.70;0.50;;;;;;;7.94;78.63;98063.00;5071864;28;20028;-55
2022/09/25 04:37:42;;;;;;;0.60;0.52;;;;;;;7.75;78.96;98040.81;5072765;28;20043;-55
2022/09/25 04:40:08;;;;;;;1.13;0.60;;;;;;;7.49;78.23;97984.78;5075658;28;20036;-56
2022/09/25 04:42:33;;;;;;;0.43;0.43;;;;;;;7.95;78.80;98069.16;5074756;28;20077;-53
2022/09/25 04:44:58;;;;;;;0.80;0.60;;;;;;;7.95;78.51;98072.66;5075933;28;20107;-52
2022/09/25 04:47:28;;;;;;;1.80;0.60;;;;;;;7.93;78.54;98079.13;5075620;28;20027;-60
2022/09/25 04:49:54;;;;;;;0.55;0.52;;;;;;;7.94;78.07;98083.47;5075411;28;20374;-60
2022/09/25 04:52:20;;;;;;;1.08;0.63;;;;;;;7.92;77.70;98086.31;5075095;28;20147;-54
2022/09/25 04:54:46;;;;;;;1.50;0.65;;;;;;;7.80;78.94;98088.34;5074944;28;20081;-57
2022/09/25 04:57:20;;;;;;;1.42;0.60;;;;;;;7.90;78.33;98089.09;5075371;28;20032;-55
2022/09/25 04:59:47;;;;;;;1.50;0.70;;;;;;;7.89;78.13;98098.09;5075320;28;20028;-53
2022/09/25 05:02:14;;;;;;;0.80;0.60;;;;;;;7.88;78.14;98096.41;5071188;28;20028;-56
2022/09/25 05:04:39;;;;;;;0.70;0.65;;;;;;;7.84;78.14;98096.88;5064970;28;20036;-58
2022/09/25 05:07:05;;;;;;;0.73;0.70;;;;;;;7.86;77.95;98095.72;5063971;28;20096;-65
2022/09/25 05:09:31;;;;;;;1.10;0.90;;;;;;;7.69;79.25;98076.06;5064189;28;20020;-58
2022/09/25 05:11:57;;;;;;;1.15;0.65;;;;;;;7.87;79.34;98107.22;5065206;28;20036;-60
2022/09/25 05:14:23;;;;;;;1.25;0.77;;;;;;;7.94;79.08;98112.78;5075307;28;20036;-59
2022/09/25 05:16:49;;;;;;;0.65;0.65;;;;;;;7.93;79.27;98098.63;5075012;28;20083;-57
2022/09/25 05:19:15;;;;;;;1.73;0.63;;;;;;;8.00;78.72;98110.38;5074129;28;20052;-65
2022/09/25 05:21:41;;;;;;;0.70;0.60;;;;;;;8.14;77.31;98113.53;5066087;28;20059;-55
2022/09/25 05:24:07;;;;;;;0.93;0.60;;;;;;;8.04;77.63;98118.91;5064248;28;20025;-53
2022/09/25 05:26:34;;;;;;;0.70;0.70;;;;;;;8.03;77.74;98125.22;5065369;28;20068;-57
2022/09/25 05:29:00;;;;;;;2.13;0.90;;;;;;;8.14;76.63;98125.00;5063518;28;20049;-61
2022/09/25 05:31:26;;;;;;;1.23;0.90;;;;;;;7.99;77.57;98116.69;5063724;28;20059;-54
2022/09/25 05:33:52;;;;;;;0.85;0.80;;;;;;;7.95;77.93;98125.13;5063567;28;20062;-54
2022/09/25 05:36:19;;;;;;;1.13;0.65;;;;;;;7.89;78.03;98122.06;5065086;28;20016;-55
2022/09/25 05:38:45;;;;;;;1.30;0.80;;;;;;;7.99;77.10;98129.19;5065148;28;20040;-60
2022/09/25 05:41:10;;;;;;;0.90;0.70;;;;;;;7.91;77.59;98132.59;5057116;28;20033;-61
2022/09/25 05:43:41;;;;;;;2.15;0.85;;;;;;;8.01;77.82;98146.69;5064716;28;20028;-62
2022/09/25 05:46:08;;;;;;;1.20;0.82;;;;;;;7.97;77.92;98145.31;5073642;28;20112;-60
2022/09/25 05:48:34;;;;;;;1.27;0.80;;;;;;;8.02;77.13;98156.34;5072869;28;20043;-62
2022/09/25 05:50:59;;;;;;;2.08;0.90;;;;;;;8.05;77.19;98152.56;5074626;28;20040;-61
2022/09/25 05:53:25;;;;;;;0.77;0.70;;;;;;;8.05;77.92;98144.56;5074859;28;20020;-61
2022/09/25 05:55:53;;;;;;;1.02;0.80;;;;;;;8.13;78.26;98157.97;5073886;28;20032;-61
2022/09/25 05:58:20;;;;;;;1.00;0.90;;;;;;;8.23;78.34;98162.44;5074252;28;20028;-62
2022/09/25 06:00:46;;;;;;;3.53;0.70;;;;;;;8.35;76.65;98152.41;5074259;28;20067;-61
2022/09/25 06:03:13;;;;;;;2.67;0.85;;;;;;;8.38;76.79;98162.75;5072727;28;20051;-60
2022/09/25 06:05:41;;;;;;;1.52;0.88;;;;;;;8.38;76.53;98155.56;5074298;28;20075;-62
2022/09/25 06:08:07;;;;;;;0.80;0.50;;;;;;;8.44;75.74;98160.31;5073271;28;20039;-61
2022/09/25 06:10:34;;;;;;;0.88;0.60;;;;;;;8.33;75.89;98153.38;5074203;28;20058;-62
2022/09/25 06:13:03;;;;;;;1.48;0.80;;;;;;;8.25;76.29;98161.28;5074182;28;20032;-65
2022/09/25 06:15:36;;;;;;;1.63;0.63;;;;;;;8.24;76.35;98158.78;5074019;28;20072;-64
2022/09/25 06:18:06;;;;;;;1.70;0.70;;;;;;;8.24;76.71;98172.94;5074148;28;20430;-62
2022/09/25 06:20:31;;;;;;;0.93;0.60;;;;;;;8.23;76.29;98160.59;5073084;28;20369;-62
2022/09/25 06:22:59;;;;;;;1.23;0.80;;;;;;;8.27;76.51;98175.28;5073733;28;20443;-62
2022/09/25 06:25:31;;;;;;;2.28;0.90;;;;;;;8.26;77.21;98172.78;5074068;28;20158;-61
2022/09/25 06:27:59;;;;;;;1.23;0.90;;;;;;;8.35;76.81;98179.88;5056576;28;20067;-61
2022/09/25 06:30:32;;;;;;;0.52;0.40;;;;;;;8.46;75.41;98179.69;5057273;28;20087;-61
2022/09/25 06:33:18;;;;;;;1.05;0.90;;;;;;;8.48;74.75;98175.03;5053098;28;20347;-62
2022/09/25 06:35:46;;;;;;;1.77;0.88;;;;;;;8.35;75.93;98174.56;5052148;28;20506;-61
2022/09/25 06:38:13;;;;;;;0.57;0.52;;;;;;;8.15;76.11;98165.84;5073455;28;20041;-61
2022/09/25 06:40:40;;;;;;;2.22;0.70;;;;;;;8.50;74.23;98195.41;5072644;28;20039;-62
2022/09/25 06:43:09;;;;;;;2.05;0.82;;;;;;;8.31;74.90;98179.34;5072991;28;20031;-61
2022/09/25 06:45:37;;;;;;;1.10;0.65;;;;;;;8.40;75.03;98201.59;5072855;28;20039;-60
2022/09/25 06:48:09;;;;;;;0.73;0.68;;;;;;;8.50;75.14;98203.41;5072872;28;20042;-62
2022/09/25 06:50:47;;;;;;;1.52;0.80;;;;;;;8.63;74.40;98206.53;5072884;28;20041;-60
2022/09/25 06:53:14;;;;;;;1.33;0.68;;;;;;;8.57;74.29;98207.16;5073240;28;20104;-61
2022/09/25 06:55:40;;;;;;;1.08;0.70;;;;;;;8.56;74.83;98198.31;5072034;28;20114;-61
2022/09/25 06:58:09;;;;;;;1.50;1.00;;;;;;;8.68;74.41;98209.59;5073507;28;20048;-61
2022/09/25 07:00:35;;;;;;;2.40;0.88;;;;;;;8.81;74.24;98208.38;5071633;28;20063;-61
2022/09/25 07:05:47;;;;;;;1.48;1.13;;;;;;;9.02;72.87;98216.06;5073296;28;20032;-61
2022/09/25 07:08:19;;;;;;;1.20;0.90;;;;;;;9.05;72.36;98210.44;5072657;28;20038;-63
2022/09/25 07:10:56;;;;;;;0.88;0.70;;;;;;;9.16;72.25;98223.53;5072705;28;20039;-62
2022/09/25 07:13:28;;;;;;;1.58;0.70;;;;;;;9.17;71.43;98227.88;5072842;28;20040;-61
2022/09/25 07:15:58;;;;;;;1.27;0.80;;;;;;;9.10;70.96;98236.66;5073002;28;20090;-61
2022/09/25 07:18:25;;;;;;;1.50;0.90;;;;;;;8.87;70.95;98200.59;5072823;28;20047;-61
2022/09/25 07:20:52;;;;;;;1.27;0.80;;;;;;;8.92;72.42;98204.63;5072518;28;20043;-61
2022/09/25 07:23:20;;;;;;;1.58;0.80;;;;;;;9.33;70.90;98226.34;5072490;28;20044;-62
2022/09/25 07:25:46;;;;;;;1.67;1.13;;;;;;;9.46;69.72;98229.44;5072456;28;20043;-61
2022/09/25 07:28:13;;;;;;;4.32;1.58;;;;;;;9.56;69.14;98239.19;5072817;28;20028;-61
2022/09/25 07:30:42;;;;;;;1.65;1.27;;;;;;;9.55;69.50;98238.34;5072708;28;20028;-61
2022/09/25 07:33:08;;;;;;;1.85;1.23;;;;;;;9.46;70.02;98256.16;5072139;28;20036;-61
2022/09/25 07:35:34;;;;;;;2.67;1.70;;;;;;;9.42;69.87;98261.97;5072958;28;20040;-62
2022/09/25 07:38:00;;;;;;;2.03;1.60;;;;;;;9.37;69.68;98262.44;5073134;28;20347;-60
2022/09/25 07:40:27;;;;;;;1.60;1.50;;;;;;;9.27;70.24;98259.00;5072443;28;20028;-62
2022/09/25 07:43:01;;;;;;;2.65;1.65;;;;;;;9.30;70.21;98272.88;5072231;28;20032;-61
2022/09/25 07:45:27;;;;;;;3.35;1.63;;;;;;;9.30;70.64;98269.38;5072661;28;20033;-60
2022/09/25 07:48:01;;;;;;;2.92;1.40;;;;;;;9.47;70.26;98265.00;5072401;28;20060;-61
2022/09/25 07:50:31;;;;;;;1.60;1.50;;;;;;;9.60;69.29;98278.78;5072325;28;20036;-61
2022/09/25 07:52:57;;;;;;;1.10;0.80;;;;;;;9.62;66.94;98276.78;5072467;28;20086;-61
2022/09/25 07:55:23;;;;;;;2.03;1.20;;;;;;;9.40;68.35;98277.28;5072524;28;20040;-62
2022/09/25 07:57:49;;;;;;;2.97;1.35;;;;;;;9.34;68.17;98274.25;5072336;28;20133;-61
2022/09/25 08:00:16;;;;;;;3.95;1.70;;;;;;;9.25;69.69;98285.00;5072190;28;20034;-63
2022/09/25 08:02:41;;;;;;;2.00;1.23;;;;;;;9.31;69.66;98290.59;5071111;28;20111;-61
2022/09/25 08:05:08;;;;;;;2.85;1.90;;;;;;;9.43;69.30;98293.03;5072223;28;20406;-63
2022/09/25 08:07:33;;;;;;;5.45;1.95;;;;;;;9.40;69.96;98274.63;5072770;28;20025;-62
2022/09/25 08:09:58;;;;;;;1.75;1.65;;;;;;;9.62;68.43;98302.69;5072187;28;20051;-62
2022/09/25 08:12:24;;;;;;;4.60;1.90;;;;;;;9.53;68.46;98301.78;5073930;28;20523;-62
2022/09/25 08:14:52;;;;;;;2.25;1.80;;;;;;;9.54;68.65;98305.31;5076509;28;20036;-62
2022/09/25 08:17:18;;;;;;;2.17;1.70;;;;;;;9.47;68.23;98311.25;5076499;28;20036;-61
2022/09/25 08:19:45;;;;;;;1.70;1.60;;;;;;;9.47;67.33;98316.59;5075845;28;20060;-62
2022/09/25 08:22:11;;;;;;;1.77;1.40;;;;;;;9.51;65.90;98321.63;5075040;28;20355;-61
2022/09/25 08:24:37;;;;;;;2.08;1.40;;;;;;;9.30;66.42;98312.13;5075914;28;20082;-64
2022/09/25 08:27:03;;;;;;;2.17;1.70;;;;;;;9.28;66.45;98322.94;5076225;28;20032;-62
2022/09/25 08:29:29;;;;;;;3.55;1.75;;;;;;;9.03;66.61;98295.16;5075881;28;20162;-62
2022/09/25 08:31:55;;;;;;;1.70;1.50;;;;;;;9.23;65.84;98314.56;5075122;28;20036;-62
2022/09/25 08:34:21;;;;;;;3.47;1.80;;;;;;;9.22;65.97;98336.91;5075957;28;20032;-61
2022/09/25 08:36:49;;;;;;;2.65;1.90;;;;;;;9.10;67.87;98341.63;5075883;28;20039;-62
2022/09/25 08:39:16;;;;;;;2.17;1.65;;;;;;;9.16;67.50;98348.19;5075587;28;20402;-63
2022/09/25 08:41:51;;;;;;;4.40;2.20;;;;;;;9.31;67.02;98349.34;5075434;28;20041;-63
2022/09/25 08:44:40;;;;;;;5.25;2.72;;;;;;;9.66;66.64;98356.69;5074971;28;20369;-63
2022/09/25 08:49:59;;;;;;;4.43;3.85;;;;;;;9.44;65.42;98362.31;5075338;28;20110;-61
2022/09/25 08:52:24;;;;;;;7.63;3.40;;;;;;;9.43;65.36;98363.31;5075352;28;20119;-62
2022/09/25 08:54:50;;;;;;;4.55;3.10;;;;;;;9.39;64.74;98361.09;5074984;28;20411;-62
2022/09/25 08:57:36;;;;;;;3.97;3.20;;;;;;;9.36;65.26;98369.41;5075116;28;20032;-61
2022/09/25 09:00:17;;;;;;;6.40;3.95;;;;;;;8.98;66.05;98354.34;5075511;28;20054;-61
2022/09/25 09:02:47;;;;;;;4.57;4.03;;;;;;;9.13;65.85;98377.84;5074763;28;20107;-62
2022/09/25 09:05:20;;;;;;;7.13;5.75;;;;;;;9.14;66.04;98384.88;5074932;28;20032;-61
2022/09/25 09:07:52;;;;;;;6.30;4.45;;;;;;;9.27;65.09;98382.69;5075402;28;20033;-62
2022/09/25 09:10:42;;;;;;;5.70;4.20;;;;;;;9.63;64.28;98382.69;5075048;28;20024;-61
2022/09/25 09:13:28;;;;;;;4.93;4.13;;;;;;;9.56;63.29;98380.81;5074978;28;20086;-63
2022/09/25 09:16:00;;;;;;;5.05;3.95;;;;;;;9.68;63.68;98384.09;5075237;28;20029;-62
2022/09/25 09:18:31;;;;;;;5.72;4.82;;;;;;;9.62;64.67;98389.03;5074682;28;20051;-63
2022/09/25 09:21:19;;;;;;;4.38;3.78;;;;;;;9.87;63.63;98386.56;5075024;28;20162;-62
2022/09/25 09:24:15;;;;;;;4.80;3.65;;;;;;;9.72;64.34;98393.47;5073712;28;20473;-61
2022/09/25 09:27:05;;;;;;;9.57;6.35;;;;;;;9.66;66.62;98397.59;5074532;28;20403;-62
2022/09/25 09:29:51;;;;;;;3.13;2.30;;;;;;;9.82;65.54;98399.56;5074804;28;20076;-60
2022/09/25 09:32:42;;;;;;;4.07;2.63;;;;;;;9.58;66.70;98408.22;5075033;28;20116;-61
2022/09/25 09:35:14;;;;;;;9.70;6.18;;;;;;;9.62;68.44;98413.06;5074724;28;20332;-61
2022/09/25 09:37:48;;;;;;;6.22;3.35;;;;;;;9.85;68.13;98423.28;5074214;28;20032;-62
2022/09/25 09:40:51;;;;;;;5.65;4.00;;;;;;;10.20;66.66;98423.41;5054869;28;20029;-62
2022/09/25 09:43:31;;;;;;;5.38;4.15;;;;;;;10.46;65.97;98418.09;5071761;28;20033;-61
2022/09/25 09:46:14;;;;;;;10.00;4.75;;;;;;;10.56;64.90;98418.00;5074414;28;20029;-62
2022/09/25 09:48:51;;;;;;;8.32;4.68;;;;;;;10.90;65.03;98422.50;5070665;28;20048;-61
2022/09/25 09:51:22;;;;;;;6.57;4.20;;;;;;;11.03;63.64;98432.75;5072762;28;20040;-64
2022/09/25 09:53:52;;;;;;;6.18;2.58;;;;;;;11.16;63.50;98429.63;5073877;28;20040;-63
2022/09/25 09:56:29;;;;;;;5.95;3.72;;;;;;;11.21;63.62;98429.16;5072173;28;20433;-62
2022/09/25 09:58:59;;;;;;;16.48;9.68;;;;;;;11.28;62.23;98424.00;5073130;28;20458;-63
2022/09/25 10:01:35;;;;;;;17.75;8.07;;;;;;;11.30;62.93;98416.63;5072205;28;20437;-62
2022/09/25 10:04:10;;;;;;;;;;;;;;;11.86;61.94;98435.66;5072661;28;20036;-62
2022/09/25 10:06:47;;;;;;;3.60;2.20;;;;;;;11.30;59.96;98430.03;5073821;28;20007;-62
2022/09/25 10:09:15;;;;;;;1.58;1.48;;;;;;;10.89;59.04;98404.75;5073777;28;20060;-63
2022/09/25 10:11:42;;;;;;;2.95;2.25;;;;;;;10.74;61.00;98428.63;5074256;28;20028;-62
2022/09/25 10:14:24;;;;;;;1.83;1.60;;;;;;;10.54;61.31;98429.84;5073950;28;20028;-62
2022/09/25 10:16:52;;;;;;;2.08;1.63;;;;;;;10.44;60.54;98444.19;5071604;28;20493;-63
2022/09/25 10:19:22;;;;;;;2.22;1.70;;;;;;;10.26;61.34;98432.66;5073413;28;20036;-63
2022/09/25 10:21:53;;;;;;;5.78;3.35;;;;;;;10.16;62.51;98444.28;5071076;28;20043;-62
2022/09/25 10:25:02;;;;;;;5.25;2.70;;;;;;;10.13;63.83;98441.94;5055906;28;20033;-62
2022/09/25 10:27:40;;;;;;;2.00;1.77;;;;;;;10.05;63.42;98441.84;5079724;28;20036;-63
2022/09/25 10:30:08;;;;;;;3.10;2.45;;;;;;;9.96;63.54;98456.16;5066708;28;20351;-63
2022/09/25 10:32:42;;;;;;;2.42;2.22;;;;;;;10.13;63.06;98454.44;5072844;28;20701;-62
2022/09/25 10:35:15;;;;;;;2.83;2.35;;;;;;;9.91;63.29;98470.81;5073556;28;20043;-62
2022/09/25 10:37:41;;;;;;;2.95;2.40;;;;;;;9.76;64.15;98464.31;5070016;28;20036;-63
2022/09/25 10:40:22;;;;;;;3.30;2.72;;;;;;;9.89;63.69;98463.94;5072552;28;20032;-61
2022/09/25 10:43:01;;;;;;;5.68;3.40;;;;;;;9.85;63.74;98462.56;5073364;28;20025;-61
2022/09/25 10:45:31;;;;;;;5.68;3.80;;;;;;;9.91;62.82;98472.66;5073312;28;20362;-63
2022/09/25 10:50:41;;;;;;;5.65;3.70;;;;;;;9.99;62.73;98472.72;5072288;28;20072;-62
2022/09/25 10:53:28;;;;;;;8.05;4.25;;;;;;;10.32;62.27;98467.66;5072385;28;20094;-62
2022/09/25 10:56:04;;;;;;;9.95;5.97;;;;;;;10.46;61.33;98463.59;5073025;28;20497;-63
2022/09/25 10:58:35;;;;;;;7.07;4.63;;;;;;;10.59;61.10;98470.34;5071496;28;20028;-63
2022/09/25 11:01:02;;;;;;;7.03;4.60;;;;;;;10.75;59.63;98465.09;5072902;28;20033;-62
2022/09/25 11:03:42;;;;;;;6.15;5.25;;;;;;;10.80;60.43;98463.78;5072369;28;20032;-62
2022/09/25 11:06:19;;;;;;;4.90;4.30;;;;;;;10.85;60.60;98458.78;5071878;28;20038;-62
2022/09/25 11:08:45;;;;;;;5.20;4.60;;;;;;;10.61;61.86;98471.88;5073131;28;20092;-62
2022/09/25 11:11:12;;;;;;;16.85;9.48;;;;;;;10.68;60.29;98480.13;5072154;28;20089;-64
2022/09/25 11:13:53;;;;;;;15.13;9.38;;;;;;;10.43;61.95;98477.28;5071766;28;20352;-62
2022/09/25 11:16:19;;;;;;;14.13;8.10;;;;;;;10.25;62.88;98479.97;5072421;28;20037;-61
2022/09/25 11:19:06;;;;;;;35.75;14.30;;;;;;;10.12;63.18;98453.59;5072810;28;20370;-63
2022/09/25 11:21:45;;;;;;;17.48;8.85;;;;;;;10.31;62.72;98489.19;5071729;28;20354;-63
2022/09/25 11:24:27;;;;;;;34.72;16.77;;;;;;;10.35;62.43;98495.91;5072748;28;20032;-62
2022/09/25 11:27:09;;;;;;;7.82;4.70;;;;;;;10.62;61.06;98491.47;5072377;28;20111;-62
2022/09/25 11:29:49;;;;;;;27.95;12.23;;;;;;;10.22;61.92;98511.53;5071423;28;20123;-61
2022/09/25 11:32:24;;;;;;;13.50;7.72;;;;;;;9.98;62.38;98500.44;5072486;28;20048;-62
2022/09/25 11:34:49;;;;;;;18.27;9.55;;;;;;;9.86;63.58;98507.84;5052590;28;20156;-62
2022/09/25 11:37:40;;;;;;;14.35;9.35;;;;;;;9.86;63.34;98497.16;5052882;28;20080;-62
2022/09/25 11:43:12;;;;;;;16.55;9.48;;;;;;;9.93;63.65;98518.78;5068561;28;20040;-62
2022/09/25 11:46:25;;;;;;;9.65;6.15;;;;;;;9.96;64.50;98523.00;5072596;28;20446;-62
2022/09/25 11:49:00;;;;;;;8.40;6.03;;;;;;;9.84;65.19;98520.53;5062301;28;20045;-62
2022/09/25 11:51:54;;;;;;;11.73;7.05;;;;;;;9.88;65.85;98516.56;5072066;28;20067;-62
2022/09/25 11:54:23;;;;;;;7.70;3.65;;;;;;;9.87;65.22;98524.75;5072451;28;20046;-62
2022/09/25 11:56:56;;;;;;;35.08;15.63;;;;;;;9.86;65.43;98520.38;5072660;28;20064;-62
2022/09/25 11:59:56;;;;;;;15.43;7.30;;;;;;;9.78;65.44;98534.50;5072048;28;20062;-62
2022/09/25 12:03:03;;;;;;;16.42;7.57;;;;;;;9.84;65.29;98531.22;5071836;28;20047;-62
2022/09/25 12:05:44;;;;;;;;;;;;;;;10.04;64.20;98528.41;5063617;28;20086;-61
2022/09/25 12:08:40;;;;;;;41.28;17.92;;;;;;;9.74;65.20;98528.59;5052244;28;19912;-61
2022/09/25 12:11:06;;;;;;;20.02;10.85;;;;;;;9.61;65.36;98520.97;5051565;28;20097;-64
2022/09/25 12:13:56;;;;;;;15.00;8.00;;;;;;;9.70;65.81;98535.25;5051273;28;20381;-63
2022/09/25 12:16:42;;;;;;;9.18;5.18;;;;;;;9.64;66.23;98533.19;5052451;28;20025;-62
2022/09/25 12:19:51;;;;;;;9.48;6.25;;;;;;;9.64;67.04;98530.50;5068876;28;20359;-61
2022/09/25 12:22:53;;;;;;;9.13;5.38;;;;;;;9.68;67.72;98529.22;5072174;28;20510;-61